Time,TemperatureF,DewpointF,PressureIn,WindDirection,WindDirectionDegrees,WindSpeedMPH,WindSpeedGustMPH,Humidity,HourlyPrecipIn,Conditions,Clouds,dailyrainin,SoftwareType,DateUTC
2013-03-08 00:22:00,43.0,33.0,-100.00,North,353,6.0,-999.0,66,0.00,,,-99.99,,2013-03-08 05:22:00,
2013-03-08 00:33:00,43.0,33.0,-100.00,North,353,6.0,-999.0,66,0.00,,,-99.99,,2013-03-08 05:33:00,
2013-03-08 00:42:00,43.0,33.0,-100.00,North,353,6.0,-999.0,66,0.00,,,-99.99,,2013-03-08 05:42:00,
2013-03-08 01:22:00,42.0,33.0,-100.00,North,10,6.0,-999.0,69,0.00,,,-99.99,,2013-03-08 06:22:00,
2013-03-08 01:32:00,42.0,33.0,-100.00,North,10,6.0,-999.0,69,0.00,,,-99.99,,2013-03-08 06:32:00,
2013-03-08 01:42:00,42.0,33.0,-100.00,North,10,6.0,-999.0,69,0.00,,,-99.99,,2013-03-08 06:42:00,
2013-03-08 02:22:00,40.0,32.0,-100.00,North,3,5.0,-999.0,73,0.00,,,-99.99,,2013-03-08 07:22:00,
2013-03-08 02:32:00,40.0,32.0,-100.00,North,3,5.0,-999.0,73,0.00,,,-99.99,,2013-03-08 07:32:00,
2013-03-08 02:42:00,40.0,32.0,-100.00,North,3,5.0,-999.0,73,0.00,,,-99.99,,2013-03-08 07:42:00,
2013-03-08 03:11:00,40.0,31.0,-100.00,North,360,7.0,-999.0,70,0.00,,,-99.99,,2013-03-08 08:11:00,
2013-03-08 03:22:00,40.0,31.0,-100.00,North,360,7.0,-999.0,70,0.00,,,-99.99,,2013-03-08 08:22:00,
2013-03-08 03:32:00,40.0,31.0,-100.00,North,360,7.0,-999.0,70,0.00,,,-99.99,,2013-03-08 08:32:00,
2013-03-08 03:42:00,40.0,31.0,-100.00,North,360,7.0,-999.0,70,0.00,,,-99.99,,2013-03-08 08:42:00,
2013-03-08 04:22:00,39.0,30.0,-100.00,North,352,6.0,-999.0,69,0.00,,,-99.99,,2013-03-08 09:22:00,
2013-03-08 04:32:00,39.0,30.0,-100.00,North,352,6.0,-999.0,69,0.00,,,-99.99,,2013-03-08 09:32:00,
2013-03-08 04:42:00,39.0,30.0,-100.00,North,352,6.0,-999.0,69,0.00,,,-99.99,,2013-03-08 09:42:00,
2013-03-08 05:21:00,39.0,29.0,-100.00,North,356,9.0,-999.0,67,0.00,,,-99.99,,2013-03-08 10:21:00,
2013-03-08 05:32:00,39.0,29.0,-100.00,North,356,9.0,-999.0,67,0.00,,,-99.99,,2013-03-08 10:32:00,
2013-03-08 05:42:00,39.0,29.0,-100.00,North,356,9.0,-999.0,67,0.00,,,-99.99,,2013-03-08 10:42:00,
2013-03-08 06:22:00,37.0,29.0,-100.00,NNW,339,7.0,-999.0,70,0.00,,,-99.99,,2013-03-08 11:22:00,
2013-03-08 06:32:00,37.0,29.0,-100.00,NNW,339,7.0,-999.0,70,0.00,,,-99.99,,2013-03-08 11:32:00,
2013-03-08 06:42:00,37.0,29.0,-100.00,NNW,339,7.0,-999.0,70,0.00,,,-99.99,,2013-03-08 11:42:00,
2013-03-08 07:22:00,36.0,29.0,-100.00,NNW,336,7.0,-999.0,76,0.00,,,-99.99,,2013-03-08 12:22:00,
2013-03-08 07:32:00,36.0,29.0,-100.00,NNW,336,7.0,-999.0,76,0.00,,,-99.99,,2013-03-08 12:32:00,
2013-03-08 07:43:00,36.0,29.0,-100.00,NNW,336,7.0,-999.0,76,0.00,,,-99.99,,2013-03-08 12:43:00,
2013-03-08 08:22:00,38.0,29.0,-100.00,NNW,336,8.0,-999.0,71,0.00,,,-99.99,,2013-03-08 13:22:00,
2013-03-08 08:32:00,38.0,29.0,-100.00,NNW,336,8.0,-999.0,71,0.00,,,-99.99,,2013-03-08 13:32:00,
2013-03-08 08:42:00,38.0,29.0,-100.00,NNW,336,8.0,-999.0,71,0.00,,,-99.99,,2013-03-08 13:42:00,
2013-03-08 09:22:00,41.0,29.0,-100.00,North,350,10.0,-999.0,60,0.00,,,-99.99,,2013-03-08 14:22:00,
2013-03-08 09:32:00,41.0,29.0,-100.00,North,350,10.0,-999.0,60,0.00,,,-99.99,,2013-03-08 14:32:00,
2013-03-08 09:42:00,41.0,29.0,-100.00,North,350,10.0,-999.0,60,0.00,,,-99.99,,2013-03-08 14:42:00,
2013-03-08 10:22:00,45.0,29.0,-100.00,North,351,10.0,-999.0,54,0.00,,,-99.99,,2013-03-08 15:22:00,
2013-03-08 10:32:00,45.0,29.0,-100.00,North,351,10.0,-999.0,54,0.00,,,-99.99,,2013-03-08 15:32:00,
2013-03-08 10:42:00,45.0,29.0,-100.00,North,351,10.0,-999.0,54,0.00,,,-99.99,,2013-03-08 15:42:00,
2013-03-08 11:12:00,48.0,27.0,-100.00,North,351,8.0,-999.0,45,-99.99,,,-99.99,,2013-03-08 16:12:00,
2013-03-08 11:22:00,48.0,27.0,-100.00,North,351,8.0,-999.0,45,0.00,,,-99.99,,2013-03-08 16:22:00,
2013-03-08 11:32:00,48.0,27.0,-100.00,North,351,8.0,-999.0,45,0.00,,,-99.99,,2013-03-08 16:32:00,
2013-03-08 11:42:00,48.0,27.0,-100.00,North,351,8.0,-999.0,45,0.00,,,-99.99,,2013-03-08 16:42:00,
2013-03-08 12:12:00,49.0,25.0,-100.00,NW,309,11.0,-999.0,39,-99.99,,,-99.99,,2013-03-08 17:12:00,
2013-03-08 12:22:00,49.0,25.0,-100.00,NW,309,11.0,-999.0,39,0.00,,,-99.99,,2013-03-08 17:22:00,
2013-03-08 12:32:00,49.0,25.0,-100.00,NW,309,11.0,-999.0,39,0.00,,,-99.99,,2013-03-08 17:32:00,
2013-03-08 12:42:00,49.0,25.0,-100.00,NW,309,11.0,-999.0,39,0.00,,,-99.99,,2013-03-08 17:42:00,
2013-03-08 13:22:00,52.0,24.0,-100.00,NW,317,10.0,-999.0,33,0.00,,,-99.99,,2013-03-08 18:22:00,
2013-03-08 13:32:00,52.0,24.0,-100.00,NW,317,10.0,-999.0,33,0.00,,,-99.99,,2013-03-08 18:32:00,
2013-03-08 13:42:00,52.0,24.0,-100.00,NW,317,10.0,-999.0,33,0.00,,,-99.99,,2013-03-08 18:42:00,
2013-03-08 14:22:00,54.0,25.0,-100.00,NNW,336,12.0,-999.0,32,0.00,,,-99.99,,2013-03-08 19:22:00,
2013-03-08 14:32:00,54.0,25.0,-100.00,NNW,336,12.0,-999.0,32,0.00,,,-99.99,,2013-03-08 19:32:00,
2013-03-08 14:42:00,54.0,25.0,-100.00,NNW,336,12.0,-999.0,32,0.00,,,-99.99,,2013-03-08 19:42:00,
2013-03-08 15:22:00,56.0,24.0,-100.00,NNW,338,12.0,-999.0,30,0.00,,,-99.99,,2013-03-08 20:22:00,
2013-03-08 15:32:00,56.0,24.0,-100.00,NNW,338,12.0,-999.0,30,0.00,,,-99.99,,2013-03-08 20:32:00,
2013-03-08 15:42:00,56.0,24.0,-100.00,NNW,338,12.0,-999.0,30,0.00,,,-99.99,,2013-03-08 20:42:00,
2013-03-08 16:22:00,56.0,24.0,-100.00,NW,314,12.0,-999.0,29,0.00,,,-99.99,,2013-03-08 21:22:00,
2013-03-08 16:32:00,56.0,24.0,-100.00,NW,314,12.0,-999.0,29,0.00,,,-99.99,,2013-03-08 21:32:00,
2013-03-08 16:42:00,56.0,24.0,-100.00,NW,314,12.0,-999.0,29,0.00,,,-99.99,,2013-03-08 21:42:00,
2013-03-08 17:22:00,56.0,23.0,-100.00,NNW,331,9.0,-999.0,28,0.00,,,-99.99,,2013-03-08 22:22:00,
2013-03-08 17:32:00,56.0,23.0,-100.00,NNW,331,9.0,-999.0,28,0.00,,,-99.99,,2013-03-08 22:32:00,
2013-03-08 17:42:00,56.0,23.0,-100.00,NNW,331,9.0,-999.0,28,0.00,,,-99.99,,2013-03-08 22:42:00,
2013-03-08 18:22:00,56.0,24.0,-100.00,NNW,348,7.0,-999.0,30,0.00,,,-99.99,,2013-03-08 23:22:00,
2013-03-08 18:32:00,56.0,24.0,-100.00,NNW,348,7.0,-999.0,30,0.00,,,-99.99,,2013-03-08 23:32:00,
2013-03-08 18:42:00,56.0,24.0,-100.00,NNW,348,7.0,-999.0,30,0.00,,,-99.99,,2013-03-08 23:42:00,
2013-03-08 19:22:00,52.0,26.0,-100.00,NNW,328,4.0,-999.0,37,0.00,,,-99.99,,2013-03-09 00:22:00,
2013-03-08 19:32:00,52.0,26.0,-100.00,NNW,328,4.0,-999.0,37,0.00,,,-99.99,,2013-03-09 00:32:00,
2013-03-08 19:42:00,52.0,26.0,-100.00,NNW,328,4.0,-999.0,37,0.00,,,-99.99,,2013-03-09 00:42:00,
2013-03-08 20:22:00,48.0,29.0,-100.00,NW,320,4.0,-999.0,47,0.00,,,-99.99,,2013-03-09 01:22:00,
2013-03-08 20:32:00,48.0,29.0,-100.00,NW,320,4.0,-999.0,47,0.00,,,-99.99,,2013-03-09 01:32:00,
2013-03-08 20:42:00,48.0,29.0,-100.00,NW,320,4.0,-999.0,47,0.00,,,-99.99,,2013-03-09 01:42:00,
2013-03-08 21:21:00,45.0,33.0,-100.00,NW,312,3.0,-999.0,62,0.00,,,-99.99,,2013-03-09 02:21:00,
2013-03-08 21:31:00,45.0,33.0,-100.00,NW,312,3.0,-999.0,62,0.00,,,-99.99,,2013-03-09 02:31:00,
2013-03-08 21:41:00,45.0,33.0,-100.00,NW,312,3.0,-999.0,62,0.00,,,-99.99,,2013-03-09 02:41:00,
2013-03-08 22:22:00,45.0,32.0,-100.00,WNW,301,3.0,-999.0,60,0.00,,,-99.99,,2013-03-09 03:22:00,
2013-03-08 22:32:00,45.0,32.0,-100.00,WNW,301,3.0,-999.0,60,0.00,,,-99.99,,2013-03-09 03:32:00,
2013-03-08 22:41:00,45.0,32.0,-100.00,WNW,301,3.0,-999.0,60,0.00,,,-99.99,,2013-03-09 03:41:00,
2013-03-08 23:22:00,44.0,31.0,-100.00,NW,318,5.0,-999.0,60,0.00,,,-99.99,,2013-03-09 04:22:00,
2013-03-08 23:32:00,44.0,31.0,-100.00,NW,318,5.0,-999.0,60,0.00,,,-99.99,,2013-03-09 04:32:00,
2013-03-08 23:42:00,44.0,31.0,-100.00,NW,318,5.0,-999.0,60,0.00,,,-99.99,,2013-03-09 04:42:00,